sensor_id;sensor_type;location;lat;lon;timestamp;temperature;humidity
8882;DHT22;4477;48.736;9.176;2022-07-18T00:00:44;13.30;73.30
8882;DHT22;4477;48.736;9.176;2022-07-18T00:03:36;13.30;72.80
8882;DHT22;4477;48.736;9.176;2022-07-18T00:06:49;13.20;72.90
8882;DHT22;4477;48.736;9.176;2022-07-18T00:12:43;13.00;72.50
8882;DHT22;4477;48.736;9.176;2022-07-18T00:15:40;13.00;73.00
8882;DHT22;4477;48.736;9.176;2022-07-18T00:18:57;13.00;74.30
8882;DHT22;4477;48.736;9.176;2022-07-18T00:21:51;12.90;74.30
8882;DHT22;4477;48.736;9.176;2022-07-18T00:24:40;12.80;74.60
8882;DHT22;4477;48.736;9.176;2022-07-18T00:28:10;12.70;70.50
8882;DHT22;4477;48.736;9.176;2022-07-18T00:31:23;12.60;71.10
8882;DHT22;4477;48.736;9.176;2022-07-18T00:34:10;12.70;73.60
8882;DHT22;4477;48.736;9.176;2022-07-18T00:36:53;12.80;70.70
8882;DHT22;4477;48.736;9.176;2022-07-18T00:39:59;12.90;67.90
8882;DHT22;4477;48.736;9.176;2022-07-18T00:42:55;13.00;66.00
8882;DHT22;4477;48.736;9.176;2022-07-18T00:46:18;13.00;68.70
8882;DHT22;4477;48.736;9.176;2022-07-18T00:49:03;12.90;70.10
8882;DHT22;4477;48.736;9.176;2022-07-18T00:51:48;12.70;71.30
8882;DHT22;4477;48.736;9.176;2022-07-18T00:54:33;12.60;72.10
8882;DHT22;4477;48.736;9.176;2022-07-18T00:57:39;12.60;72.90
8882;DHT22;4477;48.736;9.176;2022-07-18T01:00:39;12.50;70.50
8882;DHT22;4477;48.736;9.176;2022-07-18T01:04:13;12.40;74.10
8882;DHT22;4477;48.736;9.176;2022-07-18T01:07:08;12.40;74.20
8882;DHT22;4477;48.736;9.176;2022-07-18T01:09:57;12.30;75.00
8882;DHT22;4477;48.736;9.176;2022-07-18T01:12:50;12.30;75.90
8882;DHT22;4477;48.736;9.176;2022-07-18T01:15:56;12.20;74.60
8882;DHT22;4477;48.736;9.176;2022-07-18T01:22:45;12.10;74.00
8882;DHT22;4477;48.736;9.176;2022-07-18T01:25:32;12.00;74.20
8882;DHT22;4477;48.736;9.176;2022-07-18T01:28:32;12.00;76.70
8882;DHT22;4477;48.736;9.176;2022-07-18T01:31:16;11.90;78.10
8882;DHT22;4477;48.736;9.176;2022-07-18T01:34:12;12.00;76.00
8882;DHT22;4477;48.736;9.176;2022-07-18T01:37:12;12.20;77.60
8882;DHT22;4477;48.736;9.176;2022-07-18T01:40:01;12.10;76.60
8882;DHT22;4477;48.736;9.176;2022-07-18T01:43:00;12.10;78.30
8882;DHT22;4477;48.736;9.176;2022-07-18T01:45:51;12.00;76.10
8882;DHT22;4477;48.736;9.176;2022-07-18T01:51:52;11.80;78.80
8882;DHT22;4477;48.736;9.176;2022-07-18T01:54:37;11.60;79.80
8882;DHT22;4477;48.736;9.176;2022-07-18T01:57:42;11.50;81.20
8882;DHT22;4477;48.736;9.176;2022-07-18T02:00:39;11.40;83.20
8882;DHT22;4477;48.736;9.176;2022-07-18T02:03:30;11.30;86.80
8882;DHT22;4477;48.736;9.176;2022-07-18T02:06:29;11.30;86.90
8882;DHT22;4477;48.736;9.176;2022-07-18T02:09:17;11.20;88.00
8882;DHT22;4477;48.736;9.176;2022-07-18T02:12:09;11.20;88.10
8882;DHT22;4477;48.736;9.176;2022-07-18T02:15:24;11.30;89.40
8882;DHT22;4477;48.736;9.176;2022-07-18T02:18:23;11.30;90.30
8882;DHT22;4477;48.736;9.176;2022-07-18T02:24:57;11.10;88.00
8882;DHT22;4477;48.736;9.176;2022-07-18T02:27:58;11.00;90.30
8882;DHT22;4477;48.736;9.176;2022-07-18T02:30:46;10.90;90.50
8882;DHT22;4477;48.736;9.176;2022-07-18T02:33:41;10.80;91.20
8882;DHT22;4477;48.736;9.176;2022-07-18T02:36:24;10.80;90.60
8882;DHT22;4477;48.736;9.176;2022-07-18T02:38:55;10.70;90.90
8882;DHT22;4477;48.736;9.176;2022-07-18T02:41:22;10.70;93.20
8882;DHT22;4477;48.736;9.176;2022-07-18T02:43:49;10.60;94.00
8882;DHT22;4477;48.736;9.176;2022-07-18T02:46:18;10.60;94.00
8882;DHT22;4477;48.736;9.176;2022-07-18T02:48:44;10.60;94.60
8882;DHT22;4477;48.736;9.176;2022-07-18T02:51:11;10.60;94.70
8882;DHT22;4477;48.736;9.176;2022-07-18T02:53:38;10.60;94.70
8882;DHT22;4477;48.736;9.176;2022-07-18T02:56:06;10.60;95.70
8882;DHT22;4477;48.736;9.176;2022-07-18T02:58:35;10.60;97.70
8882;DHT22;4477;48.736;9.176;2022-07-18T03:01:20;10.70;97.20
8882;DHT22;4477;48.736;9.176;2022-07-18T03:03:47;10.70;97.00
8882;DHT22;4477;48.736;9.176;2022-07-18T03:06:14;10.60;97.90
8882;DHT22;4477;48.736;9.176;2022-07-18T03:08:41;10.50;98.90
8882;DHT22;4477;48.736;9.176;2022-07-18T03:11:08;10.40;99.90
8882;DHT22;4477;48.736;9.176;2022-07-18T03:13:35;10.40;99.90
8882;DHT22;4477;48.736;9.176;2022-07-18T03:16:03;10.50;99.90
8882;DHT22;4477;48.736;9.176;2022-07-18T03:18:31;10.30;99.90
8882;DHT22;4477;48.736;9.176;2022-07-18T03:20:58;10.20;99.90
8882;DHT22;4477;48.736;9.176;2022-07-18T03:23:25;10.20;99.90
8882;DHT22;4477;48.736;9.176;2022-07-18T03:25:52;10.20;99.90
8882;DHT22;4477;48.736;9.176;2022-07-18T03:28:19;10.20;99.90
8882;DHT22;4477;48.736;9.176;2022-07-18T03:30:46;10.20;99.90
8882;DHT22;4477;48.736;9.176;2022-07-18T03:33:12;10.20;99.90
8882;DHT22;4477;48.736;9.176;2022-07-18T03:35:41;10.20;99.90
8882;DHT22;4477;48.736;9.176;2022-07-18T03:38:09;10.30;99.90
8882;DHT22;4477;48.736;9.176;2022-07-18T03:40:35;10.40;99.90
8882;DHT22;4477;48.736;9.176;2022-07-18T03:43:02;10.40;99.90
8882;DHT22;4477;48.736;9.176;2022-07-18T03:45:29;10.30;99.90
8882;DHT22;4477;48.736;9.176;2022-07-18T03:47:56;10.30;99.90
8882;DHT22;4477;48.736;9.176;2022-07-18T03:50:23;10.20;99.90
8882;DHT22;4477;48.736;9.176;2022-07-18T03:52:52;10.20;99.90
8882;DHT22;4477;48.736;9.176;2022-07-18T03:55:19;10.20;99.90
8882;DHT22;4477;48.736;9.176;2022-07-18T03:57:46;10.20;99.90
8882;DHT22;4477;48.736;9.176;2022-07-18T04:00:14;10.20;99.90
8882;DHT22;4477;48.736;9.176;2022-07-18T04:02:43;10.30;99.90
8882;DHT22;4477;48.736;9.176;2022-07-18T04:05:11;10.40;99.90
8882;DHT22;4477;48.736;9.176;2022-07-18T04:07:38;10.40;99.90
8882;DHT22;4477;48.736;9.176;2022-07-18T04:10:08;10.50;99.90
8882;DHT22;4477;48.736;9.176;2022-07-18T04:12:45;10.60;99.90
8882;DHT22;4477;48.736;9.176;2022-07-18T04:15:12;10.60;99.90
8882;DHT22;4477;48.736;9.176;2022-07-18T04:17:39;10.70;99.90
8882;DHT22;4477;48.736;9.176;2022-07-18T04:20:08;10.80;99.90
8882;DHT22;4477;48.736;9.176;2022-07-18T04:22:44;10.90;99.90
8882;DHT22;4477;48.736;9.176;2022-07-18T04:25:12;11.10;99.90
8882;DHT22;4477;48.736;9.176;2022-07-18T04:27:39;11.20;99.90
8882;DHT22;4477;48.736;9.176;2022-07-18T04:30:09;11.30;99.90
8882;DHT22;4477;48.736;9.176;2022-07-18T04:32:37;11.40;99.90
8882;DHT22;4477;48.736;9.176;2022-07-18T04:35:05;11.60;99.90
8882;DHT22;4477;48.736;9.176;2022-07-18T04:37:32;11.70;99.90
8882;DHT22;4477;48.736;9.176;2022-07-18T04:39:59;11.90;99.90
8882;DHT22;4477;48.736;9.176;2022-07-18T04:42:28;12.10;99.90
8882;DHT22;4477;48.736;9.176;2022-07-18T04:44:57;12.30;99.90
8882;DHT22;4477;48.736;9.176;2022-07-18T04:47:24;12.50;99.90
8882;DHT22;4477;48.736;9.176;2022-07-18T04:50:27;12.60;99.90
8882;DHT22;4477;48.736;9.176;2022-07-18T04:53:13;13.00;99.90
8882;DHT22;4477;48.736;9.176;2022-07-18T04:55:59;13.30;99.90
8882;DHT22;4477;48.736;9.176;2022-07-18T05:25:23;17.80;92.60
8882;DHT22;4477;48.736;9.176;2022-07-18T05:28:08;18.30;89.60
8882;DHT22;4477;48.736;9.176;2022-07-18T05:31:02;18.80;88.30
8882;DHT22;4477;48.736;9.176;2022-07-18T05:34:25;19.50;88.00
8882;DHT22;4477;48.736;9.176;2022-07-18T05:37:45;19.80;81.70
8882;DHT22;4477;48.736;9.176;2022-07-18T06:48:33;23.70;59.50
8882;DHT22;4477;48.736;9.176;2022-07-18T06:51:22;23.80;62.20
8882;DHT22;4477;48.736;9.176;2022-07-18T06:54:15;24.00;59.70
8882;DHT22;4477;48.736;9.176;2022-07-18T06:57:06;24.00;58.90
8882;DHT22;4477;48.736;9.176;2022-07-18T06:59:56;24.10;59.80
8882;DHT22;4477;48.736;9.176;2022-07-18T07:02:43;24.00;60.20
8882;DHT22;4477;48.736;9.176;2022-07-18T07:31:28;24.60;56.10
8882;DHT22;4477;48.736;9.176;2022-07-18T07:34:15;24.70;58.40
8882;DHT22;4477;48.736;9.176;2022-07-18T07:37:26;24.90;55.90
8882;DHT22;4477;48.736;9.176;2022-07-18T07:40:30;25.30;55.10
8882;DHT22;4477;48.736;9.176;2022-07-18T07:56:35;27.00;48.00
8882;DHT22;4477;48.736;9.176;2022-07-18T07:59:41;27.10;48.50
8882;DHT22;4477;48.736;9.176;2022-07-18T08:13:09;28.30;47.40
8882;DHT22;4477;48.736;9.176;2022-07-18T08:15:57;28.60;46.30
8882;DHT22;4477;48.736;9.176;2022-07-18T08:18:47;28.50;46.60
8882;DHT22;4477;48.736;9.176;2022-07-18T08:21:41;28.70;48.20
8882;DHT22;4477;48.736;9.176;2022-07-18T08:24:25;28.60;45.90
8882;DHT22;4477;48.736;9.176;2022-07-18T08:27:11;28.90;44.70
8882;DHT22;4477;48.736;9.176;2022-07-18T08:33:23;30.00;47.90
8882;DHT22;4477;48.736;9.176;2022-07-18T08:36:36;30.10;48.80
8882;DHT22;4477;48.736;9.176;2022-07-18T08:39:27;30.70;47.80
8882;DHT22;4477;48.736;9.176;2022-07-18T08:42:11;30.90;43.00
8882;DHT22;4477;48.736;9.176;2022-07-18T08:44:55;31.10;50.70
8882;DHT22;4477;48.736;9.176;2022-07-18T08:47:32;31.70;47.40
8882;DHT22;4477;48.736;9.176;2022-07-18T08:50:36;31.90;46.00
8882;DHT22;4477;48.736;9.176;2022-07-18T08:53:30;32.20;44.20
8882;DHT22;4477;48.736;9.176;2022-07-18T08:56:15;32.60;45.10
8882;DHT22;4477;48.736;9.176;2022-07-18T08:59:04;32.90;41.70
8882;DHT22;4477;48.736;9.176;2022-07-18T09:01:41;33.20;43.70
8882;DHT22;4477;48.736;9.176;2022-07-18T09:04:53;33.40;40.00
8882;DHT22;4477;48.736;9.176;2022-07-18T09:07:51;33.20;42.40
8882;DHT22;4477;48.736;9.176;2022-07-18T09:10:51;33.10;38.70
8882;DHT22;4477;48.736;9.176;2022-07-18T09:13:43;32.50;39.30
8882;DHT22;4477;48.736;9.176;2022-07-18T09:16:36;32.60;35.10
8882;DHT22;4477;48.736;9.176;2022-07-18T09:19:31;33.10;43.30
8882;DHT22;4477;48.736;9.176;2022-07-18T09:22:35;33.20;40.30
8882;DHT22;4477;48.736;9.176;2022-07-18T09:25:33;32.90;34.20
8882;DHT22;4477;48.736;9.176;2022-07-18T09:28:16;32.70;39.50
8882;DHT22;4477;48.736;9.176;2022-07-18T09:30:55;33.40;40.10
8882;DHT22;4477;48.736;9.176;2022-07-18T09:33:42;33.80;34.30
8882;DHT22;4477;48.736;9.176;2022-07-18T09:36:54;33.80;35.30
8882;DHT22;4477;48.736;9.176;2022-07-18T09:39:36;33.30;31.40
8882;DHT22;4477;48.736;9.176;2022-07-18T09:42:25;33.80;36.60
8882;DHT22;4477;48.736;9.176;2022-07-18T09:44:58;34.20;37.40
8882;DHT22;4477;48.736;9.176;2022-07-18T09:47:28;34.80;38.60
8882;DHT22;4477;48.736;9.176;2022-07-18T09:50:18;35.10;35.00
8882;DHT22;4477;48.736;9.176;2022-07-18T09:53:11;35.60;39.20
8882;DHT22;4477;48.736;9.176;2022-07-18T09:55:57;35.90;33.90
8882;DHT22;4477;48.736;9.176;2022-07-18T09:58:50;36.00;34.90
8882;DHT22;4477;48.736;9.176;2022-07-18T10:01:22;36.00;33.80
8882;DHT22;4477;48.736;9.176;2022-07-18T10:03:54;35.70;31.30
8882;DHT22;4477;48.736;9.176;2022-07-18T10:06:32;35.90;31.00
8882;DHT22;4477;48.736;9.176;2022-07-18T10:09:15;36.20;32.20
8882;DHT22;4477;48.736;9.176;2022-07-18T10:11:52;36.30;36.10
8882;DHT22;4477;48.736;9.176;2022-07-18T10:14:30;36.10;30.20
8882;DHT22;4477;48.736;9.176;2022-07-18T10:17:03;35.90;31.20
8882;DHT22;4477;48.736;9.176;2022-07-18T10:20:08;36.00;33.60
8882;DHT22;4477;48.736;9.176;2022-07-18T10:22:39;35.90;29.90
8882;DHT22;4477;48.736;9.176;2022-07-18T10:25:11;36.20;30.70
8882;DHT22;4477;48.736;9.176;2022-07-18T10:28:04;36.40;33.30
8882;DHT22;4477;48.736;9.176;2022-07-18T10:30:49;36.00;29.90
8882;DHT22;4477;48.736;9.176;2022-07-18T10:33:40;36.00;36.30
8882;DHT22;4477;48.736;9.176;2022-07-18T10:36:10;36.40;33.90
8882;DHT22;4477;48.736;9.176;2022-07-18T10:38:38;36.60;30.00
8882;DHT22;4477;48.736;9.176;2022-07-18T10:41:10;36.10;30.00
8882;DHT22;4477;48.736;9.176;2022-07-18T10:43:44;36.30;35.20
8882;DHT22;4477;48.736;9.176;2022-07-18T10:46:13;36.50;30.50
8882;DHT22;4477;48.736;9.176;2022-07-18T10:48:56;36.70;33.20
8882;DHT22;4477;48.736;9.176;2022-07-18T10:51:31;37.00;29.40
8882;DHT22;4477;48.736;9.176;2022-07-18T10:54:10;36.40;27.40
8882;DHT22;4477;48.736;9.176;2022-07-18T10:57:09;36.50;30.00
8882;DHT22;4477;48.736;9.176;2022-07-18T10:59:38;36.70;30.10
8882;DHT22;4477;48.736;9.176;2022-07-18T11:02:08;36.30;29.00
8882;DHT22;4477;48.736;9.176;2022-07-18T11:04:39;34.60;30.90
8882;DHT22;4477;48.736;9.176;2022-07-18T11:07:11;35.10;32.40
8882;DHT22;4477;48.736;9.176;2022-07-18T11:09:44;35.80;29.70
8882;DHT22;4477;48.736;9.176;2022-07-18T11:12:28;36.40;33.80
8882;DHT22;4477;48.736;9.176;2022-07-18T11:15:00;35.70;28.00
8882;DHT22;4477;48.736;9.176;2022-07-18T11:17:57;35.30;28.50
8882;DHT22;4477;48.736;9.176;2022-07-18T11:20:28;35.10;29.60
8882;DHT22;4477;48.736;9.176;2022-07-18T11:22:55;35.60;27.50
8882;DHT22;4477;48.736;9.176;2022-07-18T11:25:25;36.00;32.40
8882;DHT22;4477;48.736;9.176;2022-07-18T11:27:53;36.00;30.50
8882;DHT22;4477;48.736;9.176;2022-07-18T11:30:21;36.20;32.30
8882;DHT22;4477;48.736;9.176;2022-07-18T11:32:48;36.50;32.30
8882;DHT22;4477;48.736;9.176;2022-07-18T11:35:21;36.90;29.90
8882;DHT22;4477;48.736;9.176;2022-07-18T11:37:49;36.30;29.50
8882;DHT22;4477;48.736;9.176;2022-07-18T11:40:17;35.10;29.80
8882;DHT22;4477;48.736;9.176;2022-07-18T11:42:44;35.30;35.60
8882;DHT22;4477;48.736;9.176;2022-07-18T11:45:12;36.00;34.00
8882;DHT22;4477;48.736;9.176;2022-07-18T11:47:44;36.60;28.10
8882;DHT22;4477;48.736;9.176;2022-07-18T11:50:12;36.90;28.00
8882;DHT22;4477;48.736;9.176;2022-07-18T11:52:41;36.50;28.60
8882;DHT22;4477;48.736;9.176;2022-07-18T11:55:10;36.40;29.60
8882;DHT22;4477;48.736;9.176;2022-07-18T11:57:37;36.80;34.00
8882;DHT22;4477;48.736;9.176;2022-07-18T12:00:15;37.20;31.50
8882;DHT22;4477;48.736;9.176;2022-07-18T12:03:07;36.90;27.30
8882;DHT22;4477;48.736;9.176;2022-07-18T12:05:36;36.50;29.50
8882;DHT22;4477;48.736;9.176;2022-07-18T12:08:32;36.80;27.90
8882;DHT22;4477;48.736;9.176;2022-07-18T12:11:18;37.10;29.80
8882;DHT22;4477;48.736;9.176;2022-07-18T12:13:49;36.20;30.20
8882;DHT22;4477;48.736;9.176;2022-07-18T12:16:24;36.80;27.10
8882;DHT22;4477;48.736;9.176;2022-07-18T12:18:52;37.10;27.40
8882;DHT22;4477;48.736;9.176;2022-07-18T12:21:19;37.50;24.30
8882;DHT22;4477;48.736;9.176;2022-07-18T12:23:48;37.50;32.30
8882;DHT22;4477;48.736;9.176;2022-07-18T12:26:29;37.90;28.00
8882;DHT22;4477;48.736;9.176;2022-07-18T12:29:07;38.50;34.50
8882;DHT22;4477;48.736;9.176;2022-07-18T12:31:42;38.00;28.80
8882;DHT22;4477;48.736;9.176;2022-07-18T12:34:11;37.60;27.50
8882;DHT22;4477;48.736;9.176;2022-07-18T12:36:52;37.90;30.60
8882;DHT22;4477;48.736;9.176;2022-07-18T12:39:32;38.00;26.10
8882;DHT22;4477;48.736;9.176;2022-07-18T12:42:00;37.80;25.30
8882;DHT22;4477;48.736;9.176;2022-07-18T12:44:28;37.70;26.20
8882;DHT22;4477;48.736;9.176;2022-07-18T12:46:55;38.00;29.20
8882;DHT22;4477;48.736;9.176;2022-07-18T12:49:23;38.40;29.40
8882;DHT22;4477;48.736;9.176;2022-07-18T12:51:50;38.10;26.40
8882;DHT22;4477;48.736;9.176;2022-07-18T12:54:17;38.40;28.20
8882;DHT22;4477;48.736;9.176;2022-07-18T12:56:46;38.30;25.10
8882;DHT22;4477;48.736;9.176;2022-07-18T12:59:13;37.70;24.70
8882;DHT22;4477;48.736;9.176;2022-07-18T13:01:40;38.10;27.20
8882;DHT22;4477;48.736;9.176;2022-07-18T13:04:07;38.70;26.90
8882;DHT22;4477;48.736;9.176;2022-07-18T13:06:37;38.80;24.80
8882;DHT22;4477;48.736;9.176;2022-07-18T13:09:04;38.90;29.50
8882;DHT22;4477;48.736;9.176;2022-07-18T13:11:31;39.80;26.60
8882;DHT22;4477;48.736;9.176;2022-07-18T13:14:00;40.50;24.60
8882;DHT22;4477;48.736;9.176;2022-07-18T13:16:27;40.10;24.80
8882;DHT22;4477;48.736;9.176;2022-07-18T13:18:53;39.40;25.60
8882;DHT22;4477;48.736;9.176;2022-07-18T13:21:20;39.20;26.00
8882;DHT22;4477;48.736;9.176;2022-07-18T13:23:47;40.00;26.80
8882;DHT22;4477;48.736;9.176;2022-07-18T13:26:14;40.40;27.60
8882;DHT22;4477;48.736;9.176;2022-07-18T13:28:41;40.60;28.20
8882;DHT22;4477;48.736;9.176;2022-07-18T13:31:10;41.10;26.60
8882;DHT22;4477;48.736;9.176;2022-07-18T13:33:36;40.60;26.90
8882;DHT22;4477;48.736;9.176;2022-07-18T13:36:04;40.20;25.50
8882;DHT22;4477;48.736;9.176;2022-07-18T13:38:30;40.00;23.20
8882;DHT22;4477;48.736;9.176;2022-07-18T13:40:57;38.80;24.90
8882;DHT22;4477;48.736;9.176;2022-07-18T13:43:24;39.10;26.60
8882;DHT22;4477;48.736;9.176;2022-07-18T13:45:51;39.30;24.60
8882;DHT22;4477;48.736;9.176;2022-07-18T13:48:20;39.60;27.10
8882;DHT22;4477;48.736;9.176;2022-07-18T13:50:47;40.70;25.40
8882;DHT22;4477;48.736;9.176;2022-07-18T13:53:14;41.30;27.30
8882;DHT22;4477;48.736;9.176;2022-07-18T13:55:41;41.50;26.70
8882;DHT22;4477;48.736;9.176;2022-07-18T13:58:08;41.50;26.70
8882;DHT22;4477;48.736;9.176;2022-07-18T14:00:35;41.70;24.00
8882;DHT22;4477;48.736;9.176;2022-07-18T14:03:02;42.30;24.30
8882;DHT22;4477;48.736;9.176;2022-07-18T14:05:31;42.20;24.90
8882;DHT22;4477;48.736;9.176;2022-07-18T14:07:57;41.70;23.30
8882;DHT22;4477;48.736;9.176;2022-07-18T14:10:24;41.40;25.70
8882;DHT22;4477;48.736;9.176;2022-07-18T14:12:51;41.90;25.60
8882;DHT22;4477;48.736;9.176;2022-07-18T14:15:18;41.90;27.60
8882;DHT22;4477;48.736;9.176;2022-07-18T14:17:45;42.50;23.90
8882;DHT22;4477;48.736;9.176;2022-07-18T14:20:13;42.30;25.40
8882;DHT22;4477;48.736;9.176;2022-07-18T14:22:42;42.10;26.40
8882;DHT22;4477;48.736;9.176;2022-07-18T14:25:12;42.60;25.00
8882;DHT22;4477;48.736;9.176;2022-07-18T14:27:39;42.70;26.50
8882;DHT22;4477;48.736;9.176;2022-07-18T14:30:09;41.90;25.10
8882;DHT22;4477;48.736;9.176;2022-07-18T14:32:37;41.40;25.30
8882;DHT22;4477;48.736;9.176;2022-07-18T14:35:04;40.50;23.30
8882;DHT22;4477;48.736;9.176;2022-07-18T14:37:32;40.60;24.00
8882;DHT22;4477;48.736;9.176;2022-07-18T14:40:01;40.90;23.30
8882;DHT22;4477;48.736;9.176;2022-07-18T14:42:28;40.70;23.00
8882;DHT22;4477;48.736;9.176;2022-07-18T14:44:55;40.30;23.90
8882;DHT22;4477;48.736;9.176;2022-07-18T14:47:22;40.80;26.10
8882;DHT22;4477;48.736;9.176;2022-07-18T14:49:49;41.60;26.20
8882;DHT22;4477;48.736;9.176;2022-07-18T14:52:16;42.10;22.50
8882;DHT22;4477;48.736;9.176;2022-07-18T14:54:44;42.60;23.70
8882;DHT22;4477;48.736;9.176;2022-07-18T14:57:13;42.20;22.30
8882;DHT22;4477;48.736;9.176;2022-07-18T14:59:42;42.10;23.70
8882;DHT22;4477;48.736;9.176;2022-07-18T15:02:09;42.90;23.30
8882;DHT22;4477;48.736;9.176;2022-07-18T15:04:36;43.80;22.50
8882;DHT22;4477;48.736;9.176;2022-07-18T15:07:03;44.00;22.50
8882;DHT22;4477;48.736;9.176;2022-07-18T15:09:30;43.70;22.60
8882;DHT22;4477;48.736;9.176;2022-07-18T15:11:57;43.30;23.20
8882;DHT22;4477;48.736;9.176;2022-07-18T15:14:25;43.70;21.10
8882;DHT22;4477;48.736;9.176;2022-07-18T15:16:52;43.70;23.10
8882;DHT22;4477;48.736;9.176;2022-07-18T15:19:19;43.90;21.00
8882;DHT22;4477;48.736;9.176;2022-07-18T15:21:46;43.30;21.20
8882;DHT22;4477;48.736;9.176;2022-07-18T15:24:13;43.10;21.90
8882;DHT22;4477;48.736;9.176;2022-07-18T15:26:40;42.50;22.10
8882;DHT22;4477;48.736;9.176;2022-07-18T15:29:07;42.50;21.50
8882;DHT22;4477;48.736;9.176;2022-07-18T15:31:35;42.20;21.80
8882;DHT22;4477;48.736;9.176;2022-07-18T15:34:02;42.40;24.20
8882;DHT22;4477;48.736;9.176;2022-07-18T15:36:28;42.60;21.70
8882;DHT22;4477;48.736;9.176;2022-07-18T15:38:55;42.80;26.30
8882;DHT22;4477;48.736;9.176;2022-07-18T15:41:22;43.40;21.70
8882;DHT22;4477;48.736;9.176;2022-07-18T15:43:49;43.40;21.70
8882;DHT22;4477;48.736;9.176;2022-07-18T15:46:16;43.30;25.40
8882;DHT22;4477;48.736;9.176;2022-07-18T15:48:46;43.80;21.70
8882;DHT22;4477;48.736;9.176;2022-07-18T15:51:13;44.50;22.00
8882;DHT22;4477;48.736;9.176;2022-07-18T15:53:40;44.60;21.40
8882;DHT22;4477;48.736;9.176;2022-07-18T15:56:07;43.90;21.80
8882;DHT22;4477;48.736;9.176;2022-07-18T15:58:34;43.90;25.10
8882;DHT22;4477;48.736;9.176;2022-07-18T16:01:01;44.10;21.60
8882;DHT22;4477;48.736;9.176;2022-07-18T16:03:29;44.00;25.00
8882;DHT22;4477;48.736;9.176;2022-07-18T16:05:57;43.60;21.50
8882;DHT22;4477;48.736;9.176;2022-07-18T16:08:24;43.70;23.10
8882;DHT22;4477;48.736;9.176;2022-07-18T16:10:51;43.70;23.70
8882;DHT22;4477;48.736;9.176;2022-07-18T16:13:18;44.30;22.80
8882;DHT22;4477;48.736;9.176;2022-07-18T16:15:44;44.40;24.50
8882;DHT22;4477;48.736;9.176;2022-07-18T16:18:12;44.40;21.70
8882;DHT22;4477;48.736;9.176;2022-07-18T16:20:39;43.90;21.90
8882;DHT22;4477;48.736;9.176;2022-07-18T16:23:08;43.60;23.40
8882;DHT22;4477;48.736;9.176;2022-07-18T16:25:35;42.60;21.30
8882;DHT22;4477;48.736;9.176;2022-07-18T16:28:03;40.80;24.70
8882;DHT22;4477;48.736;9.176;2022-07-18T16:30:30;38.50;25.20
8882;DHT22;4477;48.736;9.176;2022-07-18T16:32:57;36.60;25.60
8882;DHT22;4477;48.736;9.176;2022-07-18T16:35:24;35.20;26.90
8882;DHT22;4477;48.736;9.176;2022-07-18T16:37:51;34.10;31.00
8882;DHT22;4477;48.736;9.176;2022-07-18T16:40:20;33.40;29.70
8882;DHT22;4477;48.736;9.176;2022-07-18T16:42:47;32.90;30.00
8882;DHT22;4477;48.736;9.176;2022-07-18T16:45:15;32.40;31.50
8882;DHT22;4477;48.736;9.176;2022-07-18T16:47:42;32.10;30.40
8882;DHT22;4477;48.736;9.176;2022-07-18T16:50:10;31.90;30.20
8882;DHT22;4477;48.736;9.176;2022-07-18T16:52:38;31.70;31.20
8882;DHT22;4477;48.736;9.176;2022-07-18T16:55:07;31.60;32.20
8882;DHT22;4477;48.736;9.176;2022-07-18T16:57:35;31.40;32.50
8882;DHT22;4477;48.736;9.176;2022-07-18T17:00:04;31.20;32.40
8882;DHT22;4477;48.736;9.176;2022-07-18T17:02:33;31.00;33.10
8882;DHT22;4477;48.736;9.176;2022-07-18T17:05:01;31.00;34.00
8882;DHT22;4477;48.736;9.176;2022-07-18T17:07:28;30.90;34.40
8882;DHT22;4477;48.736;9.176;2022-07-18T17:09:55;30.90;33.70
8882;DHT22;4477;48.736;9.176;2022-07-18T17:12:23;31.10;33.90
8882;DHT22;4477;48.736;9.176;2022-07-18T17:14:52;31.30;32.90
8882;DHT22;4477;48.736;9.176;2022-07-18T17:17:20;31.30;33.40
8882;DHT22;4477;48.736;9.176;2022-07-18T17:19:47;31.10;32.00
8882;DHT22;4477;48.736;9.176;2022-07-18T17:22:15;30.80;34.10
8882;DHT22;4477;48.736;9.176;2022-07-18T17:24:43;30.80;35.60
8882;DHT22;4477;48.736;9.176;2022-07-18T17:27:11;31.00;35.10
8882;DHT22;4477;48.736;9.176;2022-07-18T17:29:38;31.10;34.10
8882;DHT22;4477;48.736;9.176;2022-07-18T17:32:08;30.90;33.30
8882;DHT22;4477;48.736;9.176;2022-07-18T17:34:36;30.80;34.10
8882;DHT22;4477;48.736;9.176;2022-07-18T17:37:03;30.80;35.30
8882;DHT22;4477;48.736;9.176;2022-07-18T17:39:31;30.80;35.90
8882;DHT22;4477;48.736;9.176;2022-07-18T17:41:58;31.10;34.70
8882;DHT22;4477;48.736;9.176;2022-07-18T17:44:25;31.70;35.20
8882;DHT22;4477;48.736;9.176;2022-07-18T17:46:53;32.30;34.70
8882;DHT22;4477;48.736;9.176;2022-07-18T17:49:22;32.70;37.50
8882;DHT22;4477;48.736;9.176;2022-07-18T17:51:49;33.60;34.70
8882;DHT22;4477;48.736;9.176;2022-07-18T17:54:16;34.40;32.00
8882;DHT22;4477;48.736;9.176;2022-07-18T17:56:43;35.20;30.30
8882;DHT22;4477;48.736;9.176;2022-07-18T17:59:10;35.90;29.80
8882;DHT22;4477;48.736;9.176;2022-07-18T18:01:37;36.20;31.20
8882;DHT22;4477;48.736;9.176;2022-07-18T18:04:04;36.30;31.30
8882;DHT22;4477;48.736;9.176;2022-07-18T18:06:32;36.30;30.60
8882;DHT22;4477;48.736;9.176;2022-07-18T18:08:59;36.10;30.30
8882;DHT22;4477;48.736;9.176;2022-07-18T18:11:26;36.00;31.80
8882;DHT22;4477;48.736;9.176;2022-07-18T18:13:56;35.90;30.10
8882;DHT22;4477;48.736;9.176;2022-07-18T18:16:23;35.40;30.50
8882;DHT22;4477;48.736;9.176;2022-07-18T18:18:49;34.70;31.10
8882;DHT22;4477;48.736;9.176;2022-07-18T18:21:16;33.80;33.10
8882;DHT22;4477;48.736;9.176;2022-07-18T18:23:46;32.30;33.90
8882;DHT22;4477;48.736;9.176;2022-07-18T18:26:15;30.90;37.80
8882;DHT22;4477;48.736;9.176;2022-07-18T18:28:42;29.70;40.50
8882;DHT22;4477;48.736;9.176;2022-07-18T18:31:09;28.80;43.40
8882;DHT22;4477;48.736;9.176;2022-07-18T18:33:36;27.90;43.00
8882;DHT22;4477;48.736;9.176;2022-07-18T18:36:03;27.30;45.30
8882;DHT22;4477;48.736;9.176;2022-07-18T18:38:31;26.70;46.80
8882;DHT22;4477;48.736;9.176;2022-07-18T18:41:00;26.30;48.40
8882;DHT22;4477;48.736;9.176;2022-07-18T18:43:27;26.10;50.00
8882;DHT22;4477;48.736;9.176;2022-07-18T18:45:54;26.00;51.40
8882;DHT22;4477;48.736;9.176;2022-07-18T18:48:21;25.70;51.70
8882;DHT22;4477;48.736;9.176;2022-07-18T18:50:48;25.30;51.90
8882;DHT22;4477;48.736;9.176;2022-07-18T18:53:15;25.00;53.30
8882;DHT22;4477;48.736;9.176;2022-07-18T18:55:42;24.50;56.10
8882;DHT22;4477;48.736;9.176;2022-07-18T18:58:10;24.20;55.20
8882;DHT22;4477;48.736;9.176;2022-07-18T19:00:38;23.90;57.40
8882;DHT22;4477;48.736;9.176;2022-07-18T19:03:06;23.60;56.00
8882;DHT22;4477;48.736;9.176;2022-07-18T19:05:33;23.40;56.20
8882;DHT22;4477;48.736;9.176;2022-07-18T19:08:00;23.10;56.30
8882;DHT22;4477;48.736;9.176;2022-07-18T19:10:27;22.90;59.70
8882;DHT22;4477;48.736;9.176;2022-07-18T19:12:53;22.70;58.60
8882;DHT22;4477;48.736;9.176;2022-07-18T19:15:22;22.50;57.40
8882;DHT22;4477;48.736;9.176;2022-07-18T19:17:48;22.40;58.40
8882;DHT22;4477;48.736;9.176;2022-07-18T19:20:15;22.20;60.60
8882;DHT22;4477;48.736;9.176;2022-07-18T19:22:42;21.90;61.60
8882;DHT22;4477;48.736;9.176;2022-07-18T19:25:09;21.70;62.90
8882;DHT22;4477;48.736;9.176;2022-07-18T19:27:37;21.40;63.70
8882;DHT22;4477;48.736;9.176;2022-07-18T19:30:04;21.30;62.70
8882;DHT22;4477;48.736;9.176;2022-07-18T19:32:33;21.10;62.80
8882;DHT22;4477;48.736;9.176;2022-07-18T19:35:00;21.00;63.30
8882;DHT22;4477;48.736;9.176;2022-07-18T19:37:27;20.90;65.40
8882;DHT22;4477;48.736;9.176;2022-07-18T19:39:53;20.80;62.60